createdAt,value
2023-02-03T00:01:03.431Z,-1.20
2023-02-03T00:06:09.709Z,-1.23
2023-02-03T00:11:13.435Z,-1.29
2023-02-03T00:16:16.974Z,-1.33
2023-02-03T00:21:20.767Z,-1.40
2023-02-03T00:26:26.334Z,-1.47
2023-02-03T00:31:29.920Z,-1.56
2023-02-03T00:36:33.564Z,-1.69
2023-02-03T00:41:37.204Z,-1.82
2023-02-03T00:46:40.810Z,-1.90
2023-02-03T00:51:44.330Z,-1.90
2023-02-03T00:56:47.837Z,-1.95
2023-02-03T01:01:52.018Z,-2.10
2023-02-03T01:06:57.835Z,-2.22
2023-02-03T01:12:01.469Z,-2.25
2023-02-03T01:17:05.605Z,-2.32
2023-02-03T01:22:09.204Z,-2.37
2023-02-03T01:27:12.819Z,-2.42
2023-02-03T01:32:16.334Z,-2.44
2023-02-03T01:37:19.952Z,-2.43
2023-02-03T01:42:23.679Z,-2.46
2023-02-03T01:47:43.265Z,-2.48
2023-02-03T01:53:01.645Z,-2.52
2023-02-03T01:58:21.231Z,-2.59
2023-02-03T02:03:31.697Z,-2.64
2023-02-03T02:08:39.104Z,-2.65
2023-02-03T02:13:44.623Z,-2.66
2023-02-03T02:19:34.879Z,-2.68
2023-02-03T02:25:05.839Z,-2.72
2023-02-03T02:30:37.760Z,-2.71
2023-02-03T02:36:04.172Z,-2.70
2023-02-03T02:42:12.608Z,-2.69
2023-02-03T02:47:22.003Z,-2.70
2023-02-03T02:52:29.573Z,-2.68
2023-02-03T02:57:37.710Z,-2.68
2023-02-03T03:02:41.534Z,-2.69
2023-02-03T03:07:56.710Z,-2.69
2023-02-03T03:13:05.959Z,-2.66
2023-02-03T03:18:36.104Z,-2.66
2023-02-03T03:23:42.698Z,-2.66
2023-02-03T03:29:09.346Z,-2.65
2023-02-03T03:34:14.850Z,-2.64
2023-02-03T03:39:44.430Z,-2.61
2023-02-03T03:44:59.720Z,-2.58
2023-02-03T03:50:06.325Z,-2.55
2023-02-03T03:55:14.540Z,-2.51
2023-02-03T04:00:20.784Z,-2.48
2023-02-03T04:05:25.664Z,-2.46
2023-02-03T04:10:39.216Z,-2.45
2023-02-03T04:15:42.628Z,-2.44
2023-02-03T04:20:46.246Z,-2.44
2023-02-03T04:25:49.868Z,-2.41
2023-02-03T04:30:53.316Z,-2.39
2023-02-03T04:35:56.900Z,-2.36
2023-02-03T04:41:00.310Z,-2.33
2023-02-03T04:46:04.393Z,-2.28
2023-02-03T04:51:09.301Z,-2.25
2023-02-03T04:56:12.803Z,-2.21
2023-02-03T05:01:16.248Z,-2.17
2023-02-03T05:06:29.044Z,-2.12
2023-02-03T05:11:32.764Z,-2.10
2023-02-03T05:16:36.356Z,-2.12
2023-02-03T05:21:39.909Z,-2.11
2023-02-03T05:26:43.543Z,-2.08
2023-02-03T05:31:47.080Z,-2.04
2023-02-03T05:36:50.762Z,-2.00
2023-02-03T05:41:57.124Z,-1.94
2023-02-03T05:47:01.583Z,-1.90
2023-02-03T05:52:11.148Z,-1.83
2023-02-03T05:57:14.959Z,-1.78
2023-02-03T06:02:18.368Z,-1.74
2023-02-03T06:07:21.984Z,-1.65
2023-02-03T06:12:28.144Z,-1.59
2023-02-03T06:17:32.496Z,-1.54
2023-02-03T06:22:36.124Z,-1.48
2023-02-03T06:27:39.671Z,-1.41
2023-02-03T06:32:43.251Z,-1.36
2023-02-03T06:37:46.867Z,-1.31
2023-02-03T06:42:51.712Z,-1.22
2023-02-03T06:47:55.229Z,-1.16
2023-02-03T06:52:58.647Z,-1.10
2023-02-03T06:58:02.568Z,-1.02
2023-02-03T07:03:06.044Z,-0.93
2023-02-03T07:08:09.701Z,-0.81
2023-02-03T07:13:13.317Z,-0.69
2023-02-03T07:18:43.411Z,-0.54
2023-02-03T07:23:41.866Z,-0.43
2023-02-03T07:28:45.778Z,-0.35
2023-02-03T07:33:49.500Z,-0.24
2023-02-03T07:38:53.017Z,-0.15
2023-02-03T07:43:56.634Z,-0.10
2023-02-03T07:49:00.152Z,-0.04
2023-02-03T07:54:03.981Z,0.06
2023-02-03T07:59:07.493Z,0.18
2023-02-03T08:04:13.254Z,0.34
2023-02-03T08:09:16.978Z,0.48
2023-02-03T08:14:21.539Z,0.65
2023-02-03T08:19:25.136Z,0.80
2023-02-03T08:24:28.764Z,0.87
2023-02-03T08:29:32.374Z,0.93
2023-02-03T08:34:36.603Z,0.95
2023-02-03T08:39:40.321Z,1.04
2023-02-03T08:44:44.451Z,1.15
2023-02-03T08:49:48.273Z,1.36
2023-02-03T08:54:51.890Z,1.60
2023-02-03T08:59:55.310Z,1.73
2023-02-03T09:04:58.837Z,1.92
2023-02-03T09:10:02.959Z,2.04
2023-02-03T09:15:06.958Z,2.22
2023-02-03T09:20:13.597Z,2.32
2023-02-03T09:25:17.492Z,2.43
2023-02-03T09:30:21.313Z,2.56
2023-02-03T09:35:27.207Z,2.60
2023-02-03T09:40:35.617Z,2.59
2023-02-03T09:45:39.413Z,2.65
2023-02-03T09:50:46.237Z,2.63
2023-02-03T09:55:50.567Z,2.53
2023-02-03T10:00:58.652Z,2.48
2023-02-03T10:06:03.021Z,2.50
2023-02-03T10:11:12.572Z,2.60
2023-02-03T10:16:40.613Z,2.54
2023-02-03T10:21:52.488Z,2.47
2023-02-03T10:26:56.712Z,2.52
2023-02-03T10:32:00.827Z,2.52
2023-02-03T10:37:18.088Z,2.56
2023-02-03T10:42:23.829Z,2.62
2023-02-03T10:47:47.928Z,2.69
2023-02-03T10:52:51.370Z,2.74
2023-02-03T10:57:55.601Z,2.68
2023-02-03T11:03:16.929Z,2.62
2023-02-03T11:08:34.822Z,2.63
2023-02-03T11:13:38.298Z,2.63
2023-02-03T11:18:55.649Z,2.65
2023-02-03T11:24:23.028Z,2.69
2023-02-03T11:29:34.434Z,2.71
2023-02-03T11:34:39.872Z,2.75
2023-02-03T11:39:43.279Z,2.75
2023-02-03T11:44:46.925Z,2.77
2023-02-03T11:50:31.480Z,2.79
2023-02-03T11:55:54.446Z,2.59
2023-02-03T12:01:04.935Z,2.48
2023-02-03T12:06:28.725Z,2.46
2023-02-03T12:11:40.935Z,2.42
2023-02-03T12:17:03.911Z,2.37
2023-02-03T12:22:24.319Z,2.33
2023-02-03T12:27:43.633Z,2.28
2023-02-03T12:33:05.451Z,2.31
2023-02-03T12:38:23.712Z,2.33
2023-02-03T12:43:49.607Z,2.37
2023-02-03T12:48:56.137Z,2.35
2023-02-03T12:54:07.439Z,2.36
2023-02-03T12:59:22.224Z,2.28
2023-02-03T13:04:42.012Z,2.22
2023-02-03T13:10:03.986Z,2.15
2023-02-03T13:15:21.611Z,2.16
2023-02-03T13:20:37.414Z,2.19
2023-02-03T13:25:50.141Z,2.19
2023-02-03T13:30:56.605Z,2.21
2023-02-03T13:36:21.754Z,2.14
2023-02-03T13:41:50.298Z,2.10
2023-02-03T13:46:55.097Z,1.98
2023-02-03T13:51:59.686Z,1.92
2023-02-03T13:57:07.058Z,1.82
2023-02-03T14:02:19.831Z,1.79
2023-02-03T14:07:39.980Z,1.73
2023-02-03T14:12:52.712Z,1.67
2023-02-03T14:18:00.643Z,1.63
2023-02-03T14:23:07.017Z,1.60
2023-02-03T14:28:40.564Z,1.54
2023-02-03T14:34:08.109Z,1.51
2023-02-03T14:39:20.322Z,1.49
2023-02-03T14:44:23.761Z,1.49
2023-02-03T14:50:01.474Z,1.44
2023-02-03T14:55:36.505Z,1.35
2023-02-03T15:00:39.844Z,1.22
2023-02-03T15:05:45.390Z,1.13
2023-02-03T15:10:48.794Z,1.09
2023-02-03T15:15:55.762Z,1.04
2023-02-03T15:20:59.535Z,0.98
2023-02-03T15:26:12.461Z,0.97
2023-02-03T15:31:25.481Z,0.98
2023-02-03T15:41:57.155Z,0.99
2023-02-03T15:47:04.996Z,1.01
2023-02-03T15:52:14.918Z,1.00
2023-02-03T15:57:25.299Z,1.00
2023-02-03T16:02:36.429Z,1.01
2023-02-03T16:07:40.333Z,0.97
2023-02-03T16:12:43.862Z,0.94
2023-02-03T16:17:47.442Z,0.93
2023-02-03T16:23:03.465Z,0.90
2023-02-03T16:28:31.082Z,0.91
2023-02-03T16:33:55.337Z,0.86
2023-02-03T16:39:22.200Z,0.86
2023-02-03T16:44:44.660Z,0.87
2023-02-03T16:50:07.129Z,0.87
2023-02-03T16:55:11.865Z,0.86
2023-02-03T17:00:15.990Z,0.86
2023-02-03T17:05:20.221Z,0.86
2023-02-03T17:10:24.905Z,0.83
2023-02-03T17:15:29.227Z,0.81
2023-02-03T17:20:33.025Z,0.81
2023-02-03T17:25:38.693Z,0.80
2023-02-03T17:30:43.536Z,0.78
2023-02-03T17:35:47.158Z,0.75
2023-02-03T17:56:55.990Z,0.70
2023-02-03T18:01:59.532Z,0.67
2023-02-03T18:07:03.418Z,0.68
2023-02-03T18:12:07.372Z,0.67
2023-02-03T18:17:10.963Z,0.67
2023-02-03T18:22:14.800Z,0.67
2023-02-03T18:27:19.206Z,0.64
2023-02-03T18:32:22.827Z,0.63
2023-02-03T18:37:26.539Z,0.63
2023-02-03T18:42:30.068Z,0.64
2023-02-03T18:47:35.583Z,0.64
2023-02-03T18:52:39.055Z,0.65
2023-02-03T18:57:42.674Z,0.64
2023-02-03T19:02:49.264Z,0.66
2023-02-03T19:07:52.877Z,0.66
2023-02-03T19:12:56.494Z,0.68
2023-02-03T19:18:00.331Z,0.66
2023-02-03T19:23:08.640Z,0.66
2023-02-03T19:28:17.749Z,0.66
2023-02-03T19:33:24.186Z,0.66
2023-02-03T19:38:27.841Z,0.65
2023-02-03T19:43:32.552Z,0.63
2023-02-03T19:48:36.487Z,0.59
2023-02-03T19:53:41.228Z,0.56
2023-02-03T19:58:50.801Z,0.56
2023-02-03T20:03:54.605Z,0.55
2023-02-03T20:09:00.984Z,0.51
2023-02-03T20:14:04.849Z,0.46
2023-02-03T20:19:09.147Z,0.45
2023-02-03T20:24:13.477Z,0.45
2023-02-03T20:29:16.836Z,0.40
2023-02-03T20:34:21.027Z,0.37
2023-02-03T20:39:24.928Z,0.30
2023-02-03T20:44:28.973Z,0.25
2023-02-03T20:49:32.494Z,0.20
2023-02-03T20:54:37.568Z,0.16
2023-02-03T20:59:41.676Z,0.13
2023-02-03T21:04:57.994Z,0.09
2023-02-03T21:19:44.149Z,0.03
2023-02-03T21:24:58.646Z,-0.02
2023-02-03T21:30:24.454Z,-0.05
2023-02-03T21:35:38.308Z,-0.09
2023-02-03T21:40:41.958Z,-0.13
2023-02-03T21:45:46.256Z,-0.18
2023-02-03T21:50:50.114Z,-0.20
2023-02-03T21:55:54.193Z,-0.23
2023-02-03T22:00:59.985Z,-0.25
2023-02-03T22:06:09.307Z,-0.27
2023-02-03T22:11:13.727Z,-0.25
2023-02-03T22:16:18.366Z,-0.23
2023-02-03T22:21:21.648Z,-0.25
2023-02-03T22:26:25.576Z,-0.27
2023-02-03T22:31:29.817Z,-0.31
2023-02-03T22:36:33.834Z,-0.33
2023-02-03T22:41:38.898Z,-0.35
2023-02-03T22:46:42.910Z,-0.35
2023-02-03T22:51:46.426Z,-0.38
2023-02-03T22:56:50.252Z,-0.39
2023-02-03T23:01:54.173Z,-0.39
2023-02-03T23:06:57.585Z,-0.41
2023-02-03T23:12:01.416Z,-0.43
2023-02-03T23:17:04.933Z,-0.43
2023-02-03T23:22:08.547Z,-0.47
2023-02-03T23:27:12.779Z,-0.49
2023-02-03T23:32:18.143Z,-0.50
2023-02-03T23:37:22.883Z,-0.54
2023-02-03T23:42:26.398Z,-0.53
2023-02-03T23:47:30.117Z,-0.53
2023-02-03T23:52:35.953Z,-0.53
2023-02-03T23:57:42.833Z,-0.54
